Time;durP1;ratioP1;P1;durP2;ratioP2;P2;SDS_P1;SDS_P2;PMS_P1;PMS_P2;Temp;Humidity;BMP_temperature;BMP_pressure;BME280_temperature;BME280_humidity;BME280_pressure;Samples;Min_cycle;Max_cycle;Signal;HPM_P1;HPM_P2
2021/01/27 00:00:48;;;;;;;7.23;6.50;;;0.00;97.50;;;;;;5141031;27;20420;-38
2021/01/27 00:03:14;;;;;;;7.53;6.63;;;0.00;97.50;;;;;;5141692;27;20397;-38
2021/01/27 00:05:44;;;;;;;9.73;6.80;;;-0.10;97.50;;;;;;5140706;27;20420;-38
2021/01/27 00:08:10;;;;;;;9.30;6.87;;;-0.10;97.60;;;;;;5139937;27;20688;-37
2021/01/27 00:10:37;;;;;;;9.53;7.30;;;-0.10;97.60;;;;;;5140942;27;20415;-37
2021/01/27 00:13:06;;;;;;;8.23;6.93;;;-0.10;97.80;;;;;;5141796;27;20845;-37
2021/01/27 00:15:34;;;;;;;10.00;8.27;;;-0.10;97.90;;;;;;5142042;27;20456;-38
2021/01/27 00:18:01;;;;;;;10.60;8.30;;;-0.20;97.80;;;;;;5140817;27;20420;-38
2021/01/27 00:20:28;;;;;;;10.10;8.33;;;-0.20;98.00;;;;;;5141644;27;20404;-38
2021/01/27 00:22:55;;;;;;;9.27;7.20;;;-0.20;98.10;;;;;;5142228;27;20433;-38
2021/01/27 00:25:24;;;;;;;9.10;8.07;;;-0.20;98.20;;;;;;5141739;27;20702;-38
2021/01/27 00:27:50;;;;;;;10.87;8.10;;;-0.30;98.30;;;;;;5141983;27;20954;-38
2021/01/27 00:30:21;;;;;;;9.03;8.10;;;-0.30;98.40;;;;;;5141375;27;20409;-38
2021/01/27 00:32:47;;;;;;;10.40;8.73;;;-0.40;98.60;;;;;;5141770;27;20478;-38
2021/01/27 00:35:14;;;;;;;10.50;7.80;;;-0.40;98.70;;;;;;5141760;27;20674;-38
2021/01/27 00:37:40;;;;;;;12.47;9.43;;;-0.40;98.70;;;;;;5140678;27;20493;-38
2021/01/27 00:40:07;;;;;;;9.63;8.50;;;-0.40;98.80;;;;;;5141757;27;20822;-37
2021/01/27 00:42:34;;;;;;;14.90;8.70;;;-0.40;99.00;;;;;;5141528;27;20547;-38
2021/01/27 00:45:00;;;;;;;11.13;8.70;;;-0.50;99.00;;;;;;5141118;27;20404;-39
2021/01/27 00:47:26;;;;;;;10.53;8.63;;;-0.40;99.20;;;;;;5143813;27;20428;-38
2021/01/27 00:49:52;;;;;;;11.70;9.27;;;-0.50;99.20;;;;;;5143426;27;20774;-39
2021/01/27 00:52:17;;;;;;;13.07;9.00;;;-0.50;99.30;;;;;;5141488;27;20588;-38
2021/01/27 00:54:43;;;;;;;10.60;9.37;;;-0.40;99.40;;;;;;5140738;27;20182;-39
2021/01/27 00:57:09;;;;;;;14.47;10.20;;;-0.40;99.40;;;;;;5140779;27;20210;-38
2021/01/27 00:59:35;;;;;;;11.30;8.53;;;-0.50;99.40;;;;;;5139276;27;20413;-38
2021/01/27 01:02:01;;;;;;;10.80;9.33;;;-0.50;99.50;;;;;;5138771;27;20199;-39
2021/01/27 01:04:27;;;;;;;12.67;9.20;;;-0.40;99.50;;;;;;5140118;27;20339;-36
2021/01/27 01:06:53;;;;;;;15.23;10.17;;;-0.50;99.60;;;;;;5141402;27;20278;-38
2021/01/27 01:09:18;;;;;;;11.83;9.60;;;-0.50;99.70;;;;;;5141103;27;20586;-37
2021/01/27 01:11:44;;;;;;;12.50;8.73;;;-0.50;99.80;;;;;;5141286;27;20514;-38
2021/01/27 01:14:10;;;;;;;13.33;9.30;;;-0.40;99.80;;;;;;5141006;27;20175;-38
2021/01/27 01:16:38;;;;;;;12.60;8.90;;;-0.40;99.70;;;;;;5140507;27;20227;-38
2021/01/27 01:19:07;;;;;;;12.97;9.93;;;-0.50;99.70;;;;;;5140268;27;20507;-38
2021/01/27 01:21:34;;;;;;;11.37;9.67;;;-0.50;99.90;;;;;;5140455;27;20421;-38
2021/01/27 01:24:00;;;;;;;17.77;10.63;;;-0.60;99.90;;;;;;5140384;27;20806;-37
2021/01/27 01:26:25;;;;;;;10.87;9.77;;;-0.50;99.90;;;;;;5140852;27;20413;-39
2021/01/27 01:28:51;;;;;;;10.67;9.00;;;-0.50;99.90;;;;;;5140554;27;20443;-37
2021/01/27 01:31:17;;;;;;;13.47;10.10;;;-0.40;99.90;;;;;;5141049;27;20194;-38
2021/01/27 01:33:43;;;;;;;11.57;9.50;;;-0.40;99.90;;;;;;5139455;27;20210;-38
2021/01/27 01:36:09;;;;;;;10.30;8.10;;;-0.40;99.90;;;;;;5140580;27;20192;-39
2021/01/27 01:38:35;;;;;;;11.03;9.27;;;-0.30;99.90;;;;;;5140581;27;20405;-37
2021/01/27 01:41:03;;;;;;;10.60;8.50;;;-0.30;99.70;;;;;;5140478;27;20418;-38
2021/01/27 01:43:31;;;;;;;10.93;9.83;;;-0.30;99.70;;;;;;5140114;27;20409;-37
2021/01/27 01:46:20;;;;;;;13.33;9.40;;;-0.30;99.70;;;;;;5140340;27;20415;-37
2021/01/27 01:48:47;;;;;;;10.43;8.90;;;-0.40;99.80;;;;;;5140434;27;20417;-37
2021/01/27 01:51:35;;;;;;;10.80;9.00;;;-0.30;99.80;;;;;;5139994;27;20443;-37
2021/01/27 01:54:24;;;;;;;9.53;8.60;;;-0.40;99.70;;;;;;5139123;27;20860;-37
2021/01/27 01:56:59;;;;;;;10.17;8.80;;;-0.30;99.90;;;;;;5139940;27;20454;-38
2021/01/27 01:59:27;;;;;;;13.70;9.70;;;-0.30;99.90;;;;;;5139710;27;20455;-39
2021/01/27 02:02:00;;;;;;;11.10;8.80;;;-0.20;99.60;;;;;;5122645;27;20516;-38
2021/01/27 02:05:13;;;;;;;15.70;8.97;;;-0.30;99.40;;;;;;5139163;27;20593;-38
2021/01/27 02:07:39;;;;;;;9.03;8.10;;;-0.30;99.60;;;;;;5140086;27;20432;-38
2021/01/27 02:10:06;;;;;;;12.37;8.50;;;-0.40;99.50;;;;;;5139905;27;20416;-37
2021/01/27 02:12:50;;;;;;;12.43;9.00;;;-0.40;99.60;;;;;;5140212;27;20580;-37
2021/01/27 02:15:42;;;;;;;10.20;8.27;;;-0.40;99.70;;;;;;5140291;27;20498;-37
2021/01/27 02:18:34;;;;;;;13.03;9.57;;;-0.40;99.70;;;;;;5141134;27;20727;-38
2021/01/27 02:21:40;;;;;;;9.97;8.77;;;-0.40;99.90;;;;;;5140978;27;20405;-38
2021/01/27 02:24:30;;;;;;;10.20;8.77;;;-0.40;99.80;;;;;;5144656;27;20404;-39
2021/01/27 02:27:06;;;;;;;10.30;8.47;;;-0.50;99.70;;;;;;5141848;27;20683;-38
2021/01/27 02:29:52;;;;;;;14.03;9.50;;;-0.50;99.60;;;;;;5122276;27;20416;-38
2021/01/27 02:32:36;;;;;;;10.77;9.47;;;-0.50;99.60;;;;;;5139759;27;20479;-39
2021/01/27 02:35:15;;;;;;;9.57;8.07;;;-0.50;99.60;;;;;;5141807;27;20397;-38
2021/01/27 02:38:14;;;;;;;10.90;8.20;;;-0.50;99.60;;;;;;5141433;27;20478;-37
2021/01/27 02:40:52;;;;;;;11.93;9.20;;;-0.50;99.90;;;;;;5140486;27;20408;-37
2021/01/27 02:43:24;;;;;;;8.80;7.90;;;-0.60;99.60;;;;;;5140491;27;20416;-39
2021/01/27 02:46:03;;;;;;;13.03;8.60;;;-0.60;99.60;;;;;;5140778;27;20413;-39
2021/01/27 02:48:36;;;;;;;9.67;8.40;;;-0.60;99.60;;;;;;5142788;27;20424;-38
2021/01/27 02:51:14;;;;;;;10.23;9.03;;;-0.60;99.60;;;;;;5143517;27;20807;-41
2021/01/27 02:57:11;;;;;;;11.90;9.20;;;-0.60;99.70;;;;;;5096470;28;20421;-38
2021/01/27 02:59:41;;;;;;;9.77;7.87;;;-0.50;99.60;;;;;;5079248;28;20491;-37
2021/01/27 03:02:15;;;;;;;7.63;6.83;;;-0.50;99.50;;;;;;5096532;28;20494;-38
2021/01/27 03:05:12;;;;;;;11.53;7.37;;;-0.50;99.40;;;;;;5079395;28;20424;-37
2021/01/27 03:07:40;;;;;;;8.90;8.00;;;-0.50;99.30;;;;;;5074878;28;20975;-39
2021/01/27 03:10:08;;;;;;;8.10;7.07;;;-0.50;99.20;;;;;;5096338;28;20415;-38
2021/01/27 03:12:34;;;;;;;11.70;8.37;;;-0.60;99.20;;;;;;5096059;28;20981;-39
2021/01/27 03:15:00;;;;;;;12.37;8.33;;;-0.60;99.40;;;;;;5095836;28;20740;-37
2021/01/27 03:17:28;;;;;;;8.40;7.13;;;-0.60;99.40;;;;;;5096035;28;20465;-35
2021/01/27 03:20:03;;;;;;;10.07;8.27;;;-0.60;99.50;;;;;;5079550;28;20181;-38
2021/01/27 03:22:40;;;;;;;9.43;7.13;;;-0.60;99.50;;;;;;5092781;28;20840;-37
2021/01/27 03:25:16;;;;;;;8.40;7.07;;;-0.50;99.50;;;;;;5085450;28;20419;-36
2021/01/27 03:27:53;;;;;;;8.87;7.07;;;-0.50;99.30;;;;;;5106075;28;20432;-37
2021/01/27 03:30:19;;;;;;;10.97;7.67;;;-0.50;99.20;;;;;;5133993;27;20409;-37
2021/01/27 03:33:14;;;;;;;9.47;7.93;;;-0.50;99.60;;;;;;5126351;28;20484;-36
2021/01/27 03:35:52;;;;;;;9.17;7.30;;;-0.40;99.30;;;;;;5124670;28;20854;-38
2021/01/27 03:38:32;;;;;;;7.77;6.57;;;-0.40;99.20;;;;;;5128431;28;20698;-36
2021/01/27 03:41:08;;;;;;;8.80;7.37;;;-0.40;99.20;;;;;;5125381;27;20444;-36
2021/01/27 03:44:04;;;;;;;9.93;7.17;;;-0.30;99.10;;;;;;5126394;28;20488;-37
2021/01/27 03:46:41;;;;;;;10.27;7.17;;;-0.30;98.90;;;;;;5106550;28;20854;-37
2021/01/27 03:49:17;;;;;;;8.50;7.63;;;-0.30;98.80;;;;;;5119388;27;20417;-37
2021/01/27 03:51:45;;;;;;;7.40;6.20;;;-0.30;98.70;;;;;;5117014;28;20758;-38
2021/01/27 03:54:17;;;;;;;7.70;6.50;;;-0.20;98.80;;;;;;5117190;28;20451;-35
2021/01/27 03:57:05;;;;;;;11.10;6.53;;;-0.20;98.70;;;;;;5122158;28;20416;-35
2021/01/27 03:59:31;;;;;;;6.67;5.83;;;-0.20;98.20;;;;;;5125491;28;20761;-38
2021/01/27 04:01:58;;;;;;;8.37;7.10;;;-0.20;98.10;;;;;;5138006;27;20699;-37
2021/01/27 04:04:25;;;;;;;7.87;6.60;;;-0.10;97.90;;;;;;5126250;27;20515;-38
2021/01/27 04:06:51;;;;;;;8.97;6.43;;;-0.10;97.80;;;;;;5123885;27;20858;-36
2021/01/27 04:09:18;;;;;;;9.10;6.40;;;-0.10;97.80;;;;;;5127304;27;20474;-37
2021/01/27 04:11:45;;;;;;;8.50;6.40;;;-0.10;97.70;;;;;;5132186;27;20436;-36
2021/01/27 04:14:11;;;;;;;10.00;5.90;;;-0.10;97.60;;;;;;5137974;27;20392;-40
2021/01/27 04:16:37;;;;;;;6.27;5.67;;;-0.10;97.60;;;;;;5123854;28;20473;-35
2021/01/27 04:19:05;;;;;;;7.50;5.90;;;-0.10;97.70;;;;;;5124643;28;20405;-38
2021/01/27 04:21:31;;;;;;;7.80;6.43;;;-0.20;97.60;;;;;;5130030;27;20590;-37
2021/01/27 04:23:58;;;;;;;10.37;5.87;;;-0.10;97.90;;;;;;5138699;27;20506;-35
2021/01/27 04:26:23;;;;;;;6.30;5.47;;;-0.20;97.90;;;;;;5140864;27;20191;-38
2021/01/27 04:28:50;;;;;;;7.30;6.23;;;-0.10;97.80;;;;;;5133973;27;20542;-38
2021/01/27 04:31:17;;;;;;;7.40;6.03;;;-0.20;97.70;;;;;;5135060;27;20187;-39
2021/01/27 04:33:43;;;;;;;7.00;5.20;;;-0.20;97.50;;;;;;5128105;27;20923;-36
2021/01/27 04:36:09;;;;;;;7.87;6.87;;;-0.20;97.50;;;;;;5131377;27;20464;-39
2021/01/27 04:38:35;;;;;;;6.07;5.50;;;-0.20;97.50;;;;;;5135544;27;20590;-37
2021/01/27 04:41:01;;;;;;;8.20;6.80;;;-0.20;97.50;;;;;;5131165;27;20402;-39
2021/01/27 04:43:34;;;;;;;7.80;5.67;;;-0.20;97.50;;;;;;5130195;27;20499;-38
2021/01/27 04:46:19;;;;;;;6.40;5.80;;;-0.20;97.50;;;;;;5142733;27;20477;-37
2021/01/27 04:49:00;;;;;;;7.20;5.10;;;-0.20;97.60;;;;;;5131585;27;20452;-38
2021/01/27 04:51:31;;;;;;;7.73;5.27;;;-0.20;97.70;;;;;;5121879;27;20836;-36
2021/01/27 04:54:35;;;;;;;7.70;5.60;;;-0.20;97.70;;;;;;5136077;27;20457;-37
2021/01/27 04:57:13;;;;;;;5.47;4.97;;;-0.20;97.60;;;;;;5136735;27;20509;-37
2021/01/27 05:00:13;;;;;;;8.23;5.50;;;-0.20;97.40;;;;;;5132324;27;20425;-37
2021/01/27 05:03:00;;;;;;;8.27;5.07;;;-0.10;97.50;;;;;;5135245;27;20527;-38
2021/01/27 05:05:33;;;;;;;6.60;5.33;;;-0.10;97.20;;;;;;5136209;27;20725;-38
2021/01/27 05:08:22;;;;;;;8.10;6.03;;;-0.20;97.30;;;;;;5127680;27;20431;-38
2021/01/27 05:11:02;;;;;;;5.90;5.30;;;-0.20;97.40;;;;;;5118665;27;20725;-37
2021/01/27 05:13:50;;;;;;;9.77;5.90;;;-0.10;97.30;;;;;;5121150;27;20910;-38
2021/01/27 05:16:25;;;;;;;8.20;5.80;;;-0.10;97.10;;;;;;5124168;27;20473;-37
2021/01/27 05:18:53;;;;;;;8.83;6.13;;;-0.20;97.00;;;;;;5140344;27;20407;-37
2021/01/27 05:21:35;;;;;;;10.23;4.97;;;-0.20;97.10;;;;;;5123836;27;20426;-36
2021/01/27 05:24:02;;;;;;;8.13;5.50;;;-0.10;97.10;;;;;;5130401;27;20454;-37
2021/01/27 05:26:49;;;;;;;6.97;5.50;;;-0.20;97.00;;;;;;5130959;27;20432;-37
2021/01/27 05:29:43;;;;;;;6.03;5.23;;;-0.20;97.20;;;;;;5132434;27;20798;-36
2021/01/27 05:32:10;;;;;;;5.90;5.13;;;-0.20;97.10;;;;;;5131817;27;20469;-37
2021/01/27 05:34:44;;;;;;;7.63;5.63;;;-0.20;97.00;;;;;;5138780;27;20408;-37
2021/01/27 05:37:20;;;;;;;8.07;5.63;;;-0.20;97.00;;;;;;5126602;27;20445;-36
2021/01/27 05:39:48;;;;;;;5.13;4.33;;;-0.30;97.10;;;;;;5124912;27;20404;-38
2021/01/27 05:42:22;;;;;;;6.10;5.00;;;-0.30;97.10;;;;;;5125195;27;20767;-36
2021/01/27 05:44:51;;;;;;;6.67;5.17;;;-0.30;97.10;;;;;;5127220;27;20417;-35
2021/01/27 05:47:44;;;;;;;9.50;5.80;;;-0.30;97.00;;;;;;5130548;27;20519;-36
2021/01/27 05:50:36;;;;;;;9.27;5.37;;;-0.20;97.00;;;;;;5126833;27;20444;-36
2021/01/27 05:53:14;;;;;;;13.13;8.43;;;-0.30;96.90;;;;;;5124149;27;20481;-36
2021/01/27 05:56:13;;;;;;;130.03;76.10;;;-0.40;97.10;;;;;;5125242;27;20478;-35
2021/01/27 05:58:55;;;;;;;9.73;7.50;;;-0.40;97.40;;;;;;5097164;28;20467;-37
2021/01/27 06:01:31;;;;;;;7.23;6.10;;;-0.30;97.30;;;;;;5131666;27;20440;-37
2021/01/27 06:03:58;;;;;;;10.63;5.80;;;-0.30;97.20;;;;;;5139162;27;20484;-37
2021/01/27 06:06:31;;;;;;;8.83;5.83;;;-0.30;97.10;;;;;;5130396;27;20433;-38
2021/01/27 06:08:59;;;;;;;7.53;6.30;;;-0.30;97.00;;;;;;5127215;27;20529;-37
2021/01/27 06:11:26;;;;;;;9.67;5.30;;;-0.20;97.00;;;;;;5126895;27;20498;-38
2021/01/27 06:14:16;;;;;;;8.40;5.10;;;-0.20;96.90;;;;;;5125476;27;20490;-38
2021/01/27 06:16:45;;;;;;;5.63;5.00;;;-0.20;96.90;;;;;;5122631;27;20519;-37
2021/01/27 06:19:25;;;;;;;7.07;5.10;;;-0.30;96.80;;;;;;5122264;27;20409;-37
2021/01/27 06:22:28;;;;;;;5.80;5.20;;;-0.20;96.90;;;;;;5126891;27;20429;-38
2021/01/27 06:25:13;;;;;;;9.60;4.97;;;-0.30;96.90;;;;;;5124172;27;20643;-38
2021/01/27 06:28:10;;;;;;;5.70;4.90;;;-0.30;97.10;;;;;;5130813;27;20535;-38
2021/01/27 06:30:50;;;;;;;7.20;5.17;;;-0.40;97.00;;;;;;5138662;27;20393;-37
2021/01/27 06:33:28;;;;;;;8.03;4.73;;;-0.40;97.10;;;;;;5138802;27;20478;-38
2021/01/27 06:35:57;;;;;;;7.17;5.20;;;-0.40;97.10;;;;;;5138134;27;20415;-36
2021/01/27 06:38:30;;;;;;;7.07;5.30;;;-0.30;97.00;;;;;;5136975;27;20400;-37
2021/01/27 06:41:12;;;;;;;6.43;5.37;;;-0.40;97.00;;;;;;5125843;27;20417;-37
2021/01/27 06:43:50;;;;;;;7.50;5.50;;;-0.40;97.20;;;;;;5122887;27;20416;-38
2021/01/27 06:46:40;;;;;;;6.67;5.00;;;-0.40;97.30;;;;;;5128545;27;20443;-39
2021/01/27 06:49:25;;;;;;;7.37;6.07;;;-0.40;97.20;;;;;;5129351;27;20456;-38
2021/01/27 06:52:03;;;;;;;6.00;5.03;;;-0.30;97.10;;;;;;5121306;27;20456;-37
2021/01/27 06:54:52;;;;;;;6.70;6.00;;;-0.30;97.00;;;;;;5128320;27;20424;-37
2021/01/27 06:57:39;;;;;;;9.13;5.67;;;-0.30;96.90;;;;;;5126334;27;20449;-37
2021/01/27 07:00:38;;;;;;;6.67;5.43;;;-0.20;96.90;;;;;;5125140;27;20413;-39
2021/01/27 07:03:37;;;;;;;12.60;5.00;;;-0.30;96.80;;;;;;5127135;27;20565;-38
2021/01/27 07:06:28;;;;;;;6.90;5.60;;;-0.10;96.90;;;;;;5128209;27;20439;-38
2021/01/27 07:09:16;;;;;;;6.27;4.90;;;-0.10;96.80;;;;;;5133775;27;20861;-39
2021/01/27 07:12:10;;;;;;;6.90;4.93;;;-0.10;96.80;;;;;;5116842;28;20432;-38
2021/01/27 07:15:13;;;;;;;7.70;5.10;;;-0.10;96.60;;;;;;5122391;27;20412;-39
2021/01/27 07:18:16;;;;;;;9.93;6.40;;;-0.10;96.70;;;;;;5134296;27;20447;-38
2021/01/27 07:20:48;;;;;;;8.07;5.50;;;-0.10;96.90;;;;;;5136496;27;20427;-38
2021/01/27 07:23:34;;;;;;;6.93;6.13;;;-0.10;96.90;;;;;;5137015;28;20409;-37
2021/01/27 07:26:06;;;;;;;6.97;5.77;;;-0.10;97.20;;;;;;5138393;27;20493;-38
2021/01/27 07:29:02;;;;;;;6.00;5.00;;;-0.10;97.30;;;;;;5138388;27;20485;-39
2021/01/27 07:31:34;;;;;;;5.53;4.80;;;-0.10;97.60;;;;;;5130355;28;20528;-38
2021/01/27 07:34:22;;;;;;;6.23;5.33;;;-0.10;98.00;;;;;;5120129;28;20545;-38
2021/01/27 07:37:13;;;;;;;10.10;5.40;;;-0.10;98.10;;;;;;5123618;28;20439;-38
2021/01/27 07:39:45;;;;;;;7.67;5.67;;;-0.10;98.50;;;;;;5126608;28;20477;-38
2021/01/27 07:42:16;;;;;;;7.90;5.77;;;-0.20;98.70;;;;;;5127331;28;20481;-38
2021/01/27 07:44:45;;;;;;;8.80;6.00;;;-0.20;99.10;;;;;;5126051;28;20497;-38
2021/01/27 07:47:27;;;;;;;8.23;5.40;;;-0.20;99.30;;;;;;5125662;28;20425;-37
2021/01/27 07:49:58;;;;;;;8.60;6.07;;;-0.20;99.50;;;;;;5130591;28;20491;-38
2021/01/27 07:52:30;;;;;;;10.50;5.93;;;-0.10;99.50;;;;;;5131422;27;20765;-38
2021/01/27 07:55:27;;;;;;;6.93;6.20;;;-0.10;99.50;;;;;;5118744;27;20432;-38
2021/01/27 07:58:06;;;;;;;8.63;6.80;;;-0.20;99.40;;;;;;5060285;27;20432;-39
2021/01/27 08:00:48;;;;;;;11.87;7.70;;;-0.20;99.80;;;;;;5132780;27;20504;-37
2021/01/27 08:03:28;;;;;;;13.27;8.43;;;-0.20;99.90;;;;;;5124616;27;20834;-37
2021/01/27 08:06:05;;;;;;;13.73;9.23;;;-0.20;99.80;;;;;;5122026;27;20430;-38
2021/01/27 08:08:31;;;;;;;7.40;6.60;;;-0.30;99.90;;;;;;5138162;27;20412;-38
2021/01/27 08:11:10;;;;;;;10.77;6.90;;;-0.30;99.90;;;;;;5140631;27;20742;-38
2021/01/27 08:13:40;;;;;;;7.80;6.60;;;-0.40;99.90;;;;;;5138641;27;20452;-38
2021/01/27 08:16:26;;;;;;;7.67;6.87;;;-0.40;99.90;;;;;;5132137;27;20508;-37
2021/01/27 08:19:17;;;;;;;8.20;6.70;;;-0.40;99.90;;;;;;5128642;27;20500;-37
2021/01/27 08:21:51;;;;;;;7.60;6.80;;;-0.40;99.90;;;;;;5141890;27;20471;-37
2021/01/27 08:24:35;;;;;;;8.67;6.23;;;-0.30;99.90;;;;;;5124799;27;21607;-37
2021/01/27 08:27:25;;;;;;;6.40;5.80;;;-0.20;99.90;;;;;;5142851;27;20509;-38
2021/01/27 08:29:54;;;;;;;11.13;7.03;;;-0.20;99.90;;;;;;5125673;27;20552;-38
2021/01/27 08:32:38;;;;;;;8.83;6.00;;;-0.20;99.90;;;;;;5131298;27;20542;-38
2021/01/27 08:35:06;;;;;;;8.70;7.17;;;-0.20;99.90;;;;;;5122705;27;21036;-38
2021/01/27 08:37:34;;;;;;;6.97;6.23;;;-0.10;99.90;;;;;;5138583;27;20433;-38
2021/01/27 08:40:05;;;;;;;7.53;6.67;;;-0.10;99.90;;;;;;5134281;27;20426;-38
2021/01/27 08:42:58;;;;;;;7.40;6.27;;;-0.10;99.90;;;;;;5124699;27;20421;-38
2021/01/27 08:45:23;;;;;;;7.90;6.43;;;-0.10;99.90;;;;;;5123112;27;20491;-38
2021/01/27 08:47:54;;;;;;;8.40;5.70;;;-0.10;99.90;;;;;;5121393;27;20441;-40
2021/01/27 08:50:41;;;;;;;6.33;5.70;;;-0.20;99.90;;;;;;5120082;27;20176;-38
2021/01/27 08:53:12;;;;;;;5.90;4.87;;;-0.20;99.90;;;;;;5120404;28;20522;-38
2021/01/27 08:55:44;;;;;;;7.43;6.07;;;-0.10;99.90;;;;;;5119898;28;20408;-38
2021/01/27 08:58:19;;;;;;;7.60;6.80;;;-0.10;99.90;;;;;;5128882;27;20424;-38
2021/01/27 09:00:46;;;;;;;7.03;6.17;;;0.00;99.90;;;;;;5132488;27;20752;-38
2021/01/27 09:03:37;;;;;;;7.43;5.47;;;0.00;99.90;;;;;;5139601;27;20725;-37
2021/01/27 09:06:22;;;;;;;7.33;6.50;;;0.00;99.90;;;;;;5128404;27;20857;-40
2021/01/27 09:08:48;;;;;;;9.50;7.03;;;-0.20;99.90;;;;;;5125936;27;20830;-37
2021/01/27 09:11:26;;;;;;;9.40;5.73;;;-0.10;99.90;;;;;;5120266;28;20428;-38
2021/01/27 09:13:53;;;;;;;7.70;5.10;;;-0.10;99.90;;;;;;5119301;28;20452;-36
2021/01/27 09:16:21;;;;;;;6.50;5.50;;;-0.10;99.90;;;;;;5114047;27;20476;-36
2021/01/27 09:19:05;;;;;;;6.77;5.40;;;-0.20;99.90;;;;;;5139563;27;20401;-37
2021/01/27 09:21:31;;;;;;;7.77;5.90;;;-0.30;99.90;;;;;;5128129;27;20692;-36
2021/01/27 09:24:23;;;;;;;5.97;5.40;;;-0.20;99.90;;;;;;5119792;28;20405;-37
2021/01/27 09:26:51;;;;;;;6.67;5.97;;;-0.20;99.90;;;;;;5119710;28;20525;-37
2021/01/27 09:29:26;;;;;;;6.33;5.20;;;-0.20;99.90;;;;;;5120020;28;20405;-37
2021/01/27 09:31:52;;;;;;;7.47;4.90;;;-0.20;99.90;;;;;;5119766;28;20539;-36
2021/01/27 09:34:28;;;;;;;5.50;4.80;;;-0.20;99.90;;;;;;5131518;27;20416;-36
2021/01/27 09:37:02;;;;;;;6.50;5.87;;;-0.20;99.90;;;;;;5140157;27;20465;-37
2021/01/27 09:39:33;;;;;;;6.00;4.67;;;-0.20;99.90;;;;;;5140394;27;20860;-36
2021/01/27 09:42:23;;;;;;;6.60;4.63;;;-0.20;99.90;;;;;;5140380;27;20413;-38
2021/01/27 09:44:55;;;;;;;7.10;5.80;;;-0.20;99.90;;;;;;5139543;27;20810;-38
2021/01/27 09:47:21;;;;;;;5.50;4.73;;;-0.10;99.90;;;;;;5139882;27;20413;-38
2021/01/27 09:49:50;;;;;;;5.97;4.50;;;-0.10;99.90;;;;;;5135324;27;20489;-37
2021/01/27 09:52:17;;;;;;;5.13;4.63;;;-0.10;99.90;;;;;;5116272;28;20476;-37
2021/01/27 09:54:45;;;;;;;4.80;4.33;;;-0.10;99.90;;;;;;5116360;28;20455;-37
2021/01/27 09:57:12;;;;;;;5.40;4.73;;;-0.10;99.90;;;;;;5125333;27;20443;-36
2021/01/27 09:59:38;;;;;;;7.83;4.83;;;-0.10;99.90;;;;;;5125591;27;20425;-37
2021/01/27 10:02:05;;;;;;;4.67;3.60;;;0.00;99.90;;;;;;5134791;27;20480;-36
2021/01/27 10:04:34;;;;;;;4.43;3.90;;;0.00;99.90;;;;;;5102328;28;20437;-35
2021/01/27 10:07:14;;;;;;;5.40;4.00;;;0.00;99.90;;;;;;5117520;28;20670;-36
2021/01/27 10:10:04;;;;;;;5.53;3.77;;;0.00;99.90;;;;;;5117461;28;20402;-38
2021/01/27 10:12:39;;;;;;;5.00;4.03;;;0.00;99.90;;;;;;5117627;28;20465;-36
2021/01/27 10:15:09;;;;;;;4.87;3.27;;;0.00;99.90;;;;;;5124433;27;20541;-38
2021/01/27 10:17:36;;;;;;;4.57;3.70;;;0.10;99.90;;;;;;5139044;27;20493;-36
2021/01/27 10:20:21;;;;;;;4.73;3.80;;;0.10;99.90;;;;;;5100425;28;20495;-37
2021/01/27 10:22:57;;;;;;;4.60;3.30;;;0.20;99.90;;;;;;5117728;28;20839;-38
2021/01/27 10:25:30;;;;;;;8.40;3.80;;;0.30;99.90;;;;;;5108240;27;20427;-37
2021/01/27 10:28:12;;;;;;;4.97;3.50;;;0.40;99.90;;;;;;5136945;27;20432;-37
2021/01/27 10:30:55;;;;;;;3.40;3.10;;;0.50;99.90;;;;;;5137432;27;20743;-37
2021/01/27 10:33:43;;;;;;;5.67;4.00;;;0.50;99.90;;;;;;5138718;27;20730;-38
2021/01/27 10:36:46;;;;;;;4.63;4.03;;;0.50;99.90;;;;;;5125170;27;20803;-37
2021/01/27 10:39:25;;;;;;;3.70;3.10;;;0.50;99.90;;;;;;5034991;28;20453;-37
2021/01/27 10:42:07;;;;;;;4.37;3.10;;;0.50;99.90;;;;;;5110351;28;20433;-36
2021/01/27 10:44:35;;;;;;;3.80;3.07;;;0.60;99.90;;;;;;5116683;28;20439;-37
2021/01/27 10:47:19;;;;;;;4.13;3.00;;;0.60;99.90;;;;;;5118878;28;20428;-37
2021/01/27 10:49:47;;;;;;;3.77;2.83;;;0.60;99.90;;;;;;5116997;28;20433;-37
2021/01/27 10:52:26;;;;;;;3.87;2.87;;;0.60;99.90;;;;;;5098655;28;20501;-37
2021/01/27 10:55:03;;;;;;;4.17;2.60;;;0.60;99.90;;;;;;5098808;28;20420;-37
2021/01/27 10:57:29;;;;;;;2.93;2.63;;;0.60;99.90;;;;;;5126300;27;20429;-37
2021/01/27 10:59:56;;;;;;;3.50;2.73;;;0.70;99.90;;;;;;5138051;27;20415;-37
2021/01/27 11:02:22;;;;;;;3.00;2.67;;;0.80;99.70;;;;;;5138005;27;20589;-38
2021/01/27 11:04:48;;;;;;;3.60;2.27;;;0.80;99.80;;;;;;5134507;27;20480;-37
2021/01/27 11:07:16;;;;;;;4.07;2.03;;;0.80;99.70;;;;;;5130090;27;20515;-36
2021/01/27 11:09:45;;;;;;;2.53;2.20;;;0.90;99.50;;;;;;5137176;27;20440;-39
2021/01/27 11:12:10;;;;;;;3.07;2.77;;;1.10;99.90;;;;;;5138355;27;20471;-39
2021/01/27 11:14:37;;;;;;;2.93;2.50;;;1.00;99.10;;;;;;5137676;27;20408;-40
2021/01/27 11:17:03;;;;;;;3.37;2.17;;;1.30;99.90;;;;;;5132053;27;20296;-40
2021/01/27 11:19:29;;;;;;;4.90;2.20;;;1.60;99.90;;;;;;5137324;27;20436;-39
2021/01/27 11:21:59;;;;;;;2.50;1.53;;;1.50;98.30;;;;;;5117944;27;20747;-37
2021/01/27 11:24:25;;;;;;;2.97;2.47;;;1.70;97.50;;;;;;5117067;28;20410;-37
2021/01/27 11:26:51;;;;;;;2.97;2.00;;;1.50;97.10;;;;;;5135297;28;20552;-38
2021/01/27 11:29:17;;;;;;;7.43;4.90;;;1.50;97.60;;;;;;5139460;27;20247;-37
2021/01/27 11:31:42;;;;;;;3.10;2.80;;;1.30;97.60;;;;;;5121788;27;20191;-37
2021/01/27 11:34:08;;;;;;;2.90;2.53;;;0.90;98.10;;;;;;5119468;28;20468;-37
2021/01/27 11:36:34;;;;;;;3.50;2.57;;;0.90;98.70;;;;;;5120076;28;20199;-37
2021/01/27 11:39:00;;;;;;;4.27;2.30;;;0.90;98.60;;;;;;5120305;28;20176;-37
2021/01/27 11:41:26;;;;;;;3.23;2.40;;;0.80;98.70;;;;;;5120268;28;20477;-37
2021/01/27 11:43:52;;;;;;;3.80;3.00;;;0.80;98.90;;;;;;5120049;28;20505;-37
2021/01/27 11:46:20;;;;;;;5.33;2.63;;;0.80;99.30;;;;;;5121814;28;20429;-37
2021/01/27 11:48:46;;;;;;;4.30;2.93;;;0.90;99.40;;;;;;5121864;28;20410;-37
2021/01/27 11:51:13;;;;;;;3.00;2.70;;;1.00;99.50;;;;;;5122145;28;20457;-37
2021/01/27 11:53:40;;;;;;;2.73;2.40;;;1.10;99.40;;;;;;5123483;28;20488;-36
2021/01/27 11:56:07;;;;;;;4.27;3.13;;;1.10;99.20;;;;;;5122428;28;20436;-37
2021/01/27 11:58:34;;;;;;;3.23;2.70;;;1.10;99.10;;;;;;5121818;28;20406;-38
2021/01/27 12:01:00;;;;;;;5.97;3.17;;;1.20;99.00;;;;;;5120558;28;20417;-36
2021/01/27 12:03:26;;;;;;;2.90;2.67;;;1.10;99.10;;;;;;5121083;28;20745;-37
2021/01/27 12:05:52;;;;;;;3.40;2.87;;;1.10;99.20;;;;;;5121443;28;20593;-36
2021/01/27 12:08:18;;;;;;;3.53;2.30;;;1.20;99.30;;;;;;5121281;28;20460;-37
2021/01/27 12:10:45;;;;;;;3.43;2.80;;;1.10;99.00;;;;;;5121549;27;20418;-37
2021/01/27 12:13:11;;;;;;;3.77;2.53;;;1.00;99.30;;;;;;5119999;28;20468;-37
2021/01/27 12:15:37;;;;;;;3.60;2.50;;;1.00;99.30;;;;;;5120513;28;20920;-37
2021/01/27 12:18:04;;;;;;;3.10;2.53;;;1.00;99.30;;;;;;5118995;28;21023;-36
2021/01/27 12:20:30;;;;;;;4.10;3.70;;;1.00;99.60;;;;;;5120350;28;20398;-36
2021/01/27 12:22:56;;;;;;;3.53;3.00;;;1.00;99.60;;;;;;5120104;28;20436;-37
2021/01/27 12:25:23;;;;;;;7.30;3.47;;;1.10;99.40;;;;;;5119154;28;20180;-36
2021/01/27 12:27:48;;;;;;;4.23;3.43;;;1.10;99.40;;;;;;5119830;27;20437;-35
2021/01/27 12:30:15;;;;;;;3.70;3.13;;;1.10;99.70;;;;;;5118844;28;20421;-36
2021/01/27 12:32:41;;;;;;;3.93;3.20;;;1.00;99.70;;;;;;5121078;28;20233;-35
2021/01/27 12:35:09;;;;;;;2.53;2.30;;;1.10;99.90;;;;;;5119909;28;20840;-36
2021/01/27 12:37:35;;;;;;;3.30;2.70;;;1.10;99.90;;;;;;5119423;28;20456;-36
2021/01/27 12:40:01;;;;;;;3.60;2.87;;;1.10;99.90;;;;;;5118807;28;20413;-35
2021/01/27 12:42:26;;;;;;;3.60;2.70;;;0.90;99.80;;;;;;5119590;28;20429;-35
2021/01/27 12:44:52;;;;;;;3.07;2.77;;;1.10;99.90;;;;;;5119244;28;20187;-35
2021/01/27 12:47:22;;;;;;;4.43;2.93;;;1.00;99.70;;;;;;5120187;27;20195;-36
2021/01/27 12:49:48;;;;;;;3.60;3.30;;;1.00;99.90;;;;;;5120438;28;20445;-36
2021/01/27 12:52:14;;;;;;;3.30;2.83;;;0.90;99.90;;;;;;5122947;28;20479;-35
2021/01/27 12:54:40;;;;;;;3.57;2.80;;;0.80;99.90;;;;;;5120530;28;20838;-35
2021/01/27 12:57:06;;;;;;;7.40;3.30;;;0.80;99.90;;;;;;5119946;28;20465;-35
2021/01/27 12:59:32;;;;;;;4.37;3.97;;;0.70;99.80;;;;;;5119799;27;20175;-35
2021/01/27 13:01:58;;;;;;;4.93;4.00;;;0.80;99.90;;;;;;5120348;28;20468;-35
2021/01/27 13:04:24;;;;;;;4.97;3.93;;;0.70;99.90;;;;;;5120309;28;20263;-36
2021/01/27 13:06:50;;;;;;;4.47;3.60;;;0.90;99.90;;;;;;5118906;28;20475;-35
2021/01/27 13:09:15;;;;;;;5.53;3.57;;;1.00;99.90;;;;;;5120608;28;20482;-36
2021/01/27 13:11:42;;;;;;;3.93;3.27;;;1.00;99.90;;;;;;5119467;28;20180;-35
2021/01/27 13:14:08;;;;;;;7.53;3.43;;;1.10;99.80;;;;;;5119423;28;20250;-36
2021/01/27 13:16:37;;;;;;;5.63;4.00;;;1.20;99.50;;;;;;5116942;28;20492;-36
2021/01/27 13:19:03;;;;;;;4.30;3.50;;;1.20;99.20;;;;;;5119402;28;20187;-36
2021/01/27 13:21:29;;;;;;;4.30;3.37;;;1.30;98.90;;;;;;5119682;28;20426;-37
2021/01/27 13:23:55;;;;;;;5.40;3.87;;;1.30;98.90;;;;;;5117598;28;20438;-36
2021/01/27 13:26:21;;;;;;;7.20;5.67;;;1.30;98.50;;;;;;5118071;28;20496;-36